Time;durP1;ratioP1;P1;durP2;ratioP2;P2;SDS_P1;SDS_P2;PMS_P1;PMS_P2;Temp;Humidity;BMP_temperature;BMP_pressure;BME280_temperature;BME280_humidity;BME280_pressure;Samples;Min_cycle;Max_cycle;Signal;HPM_P1;HPM_P2
2022/08/30 00:02:55;;;;;;;0.85;0.60;;;22.40;99.90;;;;;;5048559;28;20236;-50
2022/08/30 00:05:22;;;;;;;0.73;0.50;;;22.30;99.90;;;;;;5051188;28;20240;-47
2022/08/30 00:07:50;;;;;;;0.47;0.47;;;22.30;99.90;;;;;;5050383;28;20610;-45
2022/08/30 00:10:17;;;;;;;0.50;0.50;;;22.30;99.90;;;;;;5050501;28;20285;-45
2022/08/30 00:12:44;;;;;;;0.50;0.50;;;22.30;99.90;;;;;;5051181;28;20577;-43
2022/08/30 00:15:13;;;;;;;0.60;0.60;;;22.30;99.90;;;;;;5047457;28;20202;-48
2022/08/30 00:17:42;;;;;;;0.40;0.40;;;22.30;99.90;;;;;;5051624;28;20679;-47
2022/08/30 00:20:12;;;;;;;0.40;0.40;;;22.30;99.90;;;;;;5051431;28;20569;-45
2022/08/30 00:22:39;;;;;;;1.45;0.40;;;22.30;99.90;;;;;;5052324;28;20226;-43
2022/08/30 00:25:08;;;;;;;0.43;0.43;;;22.30;99.90;;;;;;5049751;28;20662;-44
2022/08/30 00:27:35;;;;;;;0.55;0.50;;;22.30;99.90;;;;;;5050123;28;20281;-46
2022/08/30 00:30:04;;;;;;;0.40;0.40;;;22.40;99.90;;;;;;5048565;28;20286;-44
2022/08/30 00:32:32;;;;;;;0.38;0.38;;;22.40;99.90;;;;;;5050500;28;20198;-49
2022/08/30 00:35:00;;;;;;;0.90;0.40;;;22.30;99.90;;;;;;5047413;28;20198;-51
2022/08/30 00:37:27;;;;;;;0.50;0.50;;;22.30;99.90;;;;;;5050113;28;20202;-48
2022/08/30 00:39:54;;;;;;;0.50;0.50;;;22.30;99.90;;;;;;5053085;28;20307;-42
2022/08/30 00:42:22;;;;;;;0.40;0.40;;;22.20;99.90;;;;;;5050247;28;20273;-47
2022/08/30 00:44:49;;;;;;;0.38;0.38;;;22.20;99.90;;;;;;5050164;28;20214;-46
2022/08/30 00:47:17;;;;;;;0.40;0.40;;;22.20;99.90;;;;;;5051166;28;20205;-48
2022/08/30 00:49:50;;;;;;;0.40;0.40;;;22.20;99.90;;;;;;5049721;28;20637;-50
2022/08/30 00:52:18;;;;;;;0.30;0.30;;;22.20;99.90;;;;;;5050010;28;20617;-45
2022/08/30 00:54:47;;;;;;;0.40;0.40;;;22.20;99.90;;;;;;5049993;28;20546;-47
2022/08/30 00:57:15;;;;;;;0.30;0.30;;;22.20;99.90;;;;;;5050411;28;21062;-47
2022/08/30 00:59:44;;;;;;;0.38;0.38;;;22.20;99.90;;;;;;5048460;28;20196;-47
2022/08/30 01:02:11;;;;;;;0.30;0.30;;;22.20;99.90;;;;;;5048483;28;20197;-44
2022/08/30 01:04:41;;;;;;;0.38;0.38;;;22.10;99.90;;;;;;5049428;28;20267;-45
2022/08/30 01:07:10;;;;;;;0.40;0.40;;;22.20;99.90;;;;;;5050339;28;20236;-45
2022/08/30 01:09:37;;;;;;;0.38;0.38;;;22.20;99.90;;;;;;5049966;28;20190;-44
2022/08/30 01:12:06;;;;;;;1.15;0.55;;;22.20;99.90;;;;;;5048269;28;20300;-47
2022/08/30 01:14:33;;;;;;;0.45;0.45;;;22.20;99.90;;;;;;5050992;28;20278;-46
2022/08/30 01:17:01;;;;;;;0.40;0.40;;;22.20;99.90;;;;;;5049418;28;20665;-46
2022/08/30 01:19:38;;;;;;;0.30;0.30;;;22.10;99.90;;;;;;5049400;28;20206;-49
2022/08/30 01:22:17;;;;;;;0.30;0.30;;;22.10;99.90;;;;;;5047345;28;20229;-49
2022/08/30 01:24:46;;;;;;;0.40;0.40;;;22.10;99.90;;;;;;5047213;28;20312;-49
2022/08/30 01:27:14;;;;;;;0.40;0.40;;;22.00;99.90;;;;;;5048454;28;20206;-48
2022/08/30 01:29:43;;;;;;;0.38;0.38;;;22.00;99.90;;;;;;5045851;28;20197;-45
2022/08/30 01:32:17;;;;;;;0.60;0.60;;;22.00;99.90;;;;;;5047590;28;20225;-43
2022/08/30 01:34:45;;;;;;;0.50;0.50;;;22.00;99.90;;;;;;5046064;28;20276;-44
2022/08/30 01:37:14;;;;;;;0.40;0.40;;;22.00;99.90;;;;;;5049562;28;20194;-45
2022/08/30 01:39:41;;;;;;;0.45;0.40;;;22.00;99.90;;;;;;5046895;28;20233;-47
2022/08/30 01:42:09;;;;;;;1.10;0.50;;;22.00;99.90;;;;;;5050966;28;22420;-43
2022/08/30 01:44:36;;;;;;;0.43;0.43;;;22.00;99.90;;;;;;5051221;28;20288;-46
2022/08/30 01:47:04;;;;;;;0.35;0.35;;;22.00;99.90;;;;;;5046817;28;20708;-43
2022/08/30 01:49:31;;;;;;;0.93;0.60;;;21.90;99.90;;;;;;5047141;28;20552;-46
2022/08/30 01:51:58;;;;;;;0.40;0.40;;;21.90;99.90;;;;;;5048435;28;20272;-46
2022/08/30 01:54:25;;;;;;;0.45;0.45;;;21.90;99.90;;;;;;5048574;28;20657;-47
2022/08/30 01:56:52;;;;;;;0.40;0.40;;;21.90;99.90;;;;;;5049000;28;20281;-49
2022/08/30 01:59:20;;;;;;;0.57;0.57;;;21.90;99.90;;;;;;5048164;28;20251;-48
2022/08/30 02:01:47;;;;;;;0.57;0.57;;;21.90;99.90;;;;;;5048550;28;20289;-49
2022/08/30 02:04:15;;;;;;;0.32;0.32;;;21.90;99.90;;;;;;5047967;28;20277;-44
2022/08/30 02:06:43;;;;;;;0.40;0.40;;;21.90;99.90;;;;;;5050481;28;20197;-47
2022/08/30 02:09:11;;;;;;;0.52;0.52;;;21.80;99.90;;;;;;5050294;28;20198;-45
2022/08/30 02:11:38;;;;;;;0.40;0.40;;;21.80;99.90;;;;;;5051048;28;20720;-43
2022/08/30 02:14:06;;;;;;;0.50;0.50;;;21.80;99.90;;;;;;5046488;28;20193;-42
2022/08/30 02:16:35;;;;;;;0.98;0.50;;;21.80;99.90;;;;;;5048915;28;20201;-48
2022/08/30 02:19:02;;;;;;;0.40;0.40;;;21.80;99.90;;;;;;5047677;28;20274;-41
2022/08/30 02:21:29;;;;;;;0.75;0.40;;;21.80;99.90;;;;;;5047084;28;20198;-44
2022/08/30 02:23:56;;;;;;;0.60;0.60;;;21.80;99.90;;;;;;5047929;28;20230;-47
2022/08/30 02:26:23;;;;;;;0.52;0.52;;;21.80;99.90;;;;;;5048572;28;20284;-47
2022/08/30 02:28:51;;;;;;;0.55;0.50;;;21.80;99.90;;;;;;5046822;28;20212;-46
2022/08/30 02:31:19;;;;;;;0.65;0.50;;;21.80;99.90;;;;;;5046137;28;20190;-46
2022/08/30 02:33:50;;;;;;;0.60;0.60;;;21.70;99.90;;;;;;5047560;28;20194;-45
2022/08/30 02:36:17;;;;;;;0.50;0.50;;;21.70;99.90;;;;;;5045090;28;20666;-43
2022/08/30 02:38:45;;;;;;;0.70;0.50;;;21.70;99.90;;;;;;5050033;28;20221;-47
2022/08/30 02:41:12;;;;;;;0.40;0.40;;;21.70;99.90;;;;;;5048098;28;20208;-44
2022/08/30 02:43:39;;;;;;;0.50;0.50;;;21.70;99.90;;;;;;5048927;28;20285;-47
2022/08/30 02:46:06;;;;;;;0.40;0.40;;;21.70;99.90;;;;;;5046772;28;20622;-49
2022/08/30 02:48:33;;;;;;;0.50;0.50;;;21.70;99.90;;;;;;5047460;28;20276;-44
2022/08/30 02:51:05;;;;;;;0.43;0.43;;;21.70;99.90;;;;;;5050215;28;20198;-45
2022/08/30 02:53:32;;;;;;;0.40;0.40;;;21.70;99.90;;;;;;5046674;28;20224;-46
2022/08/30 02:56:00;;;;;;;0.50;0.50;;;21.70;99.90;;;;;;5047598;28;20217;-48
2022/08/30 02:58:27;;;;;;;0.50;0.50;;;21.60;99.90;;;;;;5047626;28;20357;-46
2022/08/30 03:00:54;;;;;;;0.50;0.50;;;21.60;99.90;;;;;;5048892;28;20240;-46
2022/08/30 03:03:21;;;;;;;0.57;0.57;;;21.60;99.90;;;;;;5051156;28;20222;-44
2022/08/30 03:05:48;;;;;;;0.60;0.60;;;21.60;99.90;;;;;;5053179;28;20297;-44
2022/08/30 03:08:16;;;;;;;0.40;0.40;;;21.60;99.90;;;;;;5051674;28;20252;-44
2022/08/30 03:10:43;;;;;;;0.65;0.60;;;21.50;99.90;;;;;;5052434;28;20676;-47
2022/08/30 03:13:10;;;;;;;0.60;0.60;;;21.50;99.90;;;;;;5048360;28;20259;-44
2022/08/30 03:15:38;;;;;;;0.40;0.40;;;21.50;99.90;;;;;;5051818;28;20193;-44
2022/08/30 03:18:06;;;;;;;0.55;0.55;;;21.50;99.90;;;;;;5049960;28;20221;-46
2022/08/30 03:20:33;;;;;;;0.52;0.52;;;21.50;99.90;;;;;;5050975;28;20276;-45
2022/08/30 03:23:01;;;;;;;1.15;0.50;;;21.50;99.90;;;;;;5053434;28;20208;-45
2022/08/30 03:25:29;;;;;;;1.33;0.40;;;21.50;99.90;;;;;;5052200;28;20269;-42
2022/08/30 03:27:56;;;;;;;0.40;0.40;;;21.50;99.90;;;;;;5051668;28;20277;-43
2022/08/30 03:30:24;;;;;;;0.50;0.50;;;21.50;99.90;;;;;;5052480;28;20209;-42
2022/08/30 03:32:51;;;;;;;0.50;0.50;;;21.50;99.90;;;;;;5051112;28;21071;-46
2022/08/30 03:35:18;;;;;;;0.47;0.40;;;21.50;99.90;;;;;;5048282;28;20277;-50
2022/08/30 03:37:46;;;;;;;0.40;0.40;;;21.40;99.90;;;;;;5051493;28;20229;-46
2022/08/30 03:40:15;;;;;;;0.40;0.40;;;21.40;99.90;;;;;;5051374;28;20209;-41
2022/08/30 03:42:44;;;;;;;0.40;0.40;;;21.40;99.90;;;;;;5050830;28;20293;-42
2022/08/30 03:45:12;;;;;;;0.30;0.30;;;21.40;99.90;;;;;;5049130;28;20231;-43
2022/08/30 03:47:39;;;;;;;0.30;0.30;;;21.40;99.90;;;;;;5053256;28;20190;-40
2022/08/30 03:50:07;;;;;;;0.40;0.40;;;21.40;99.90;;;;;;5051270;28;20202;-42
2022/08/30 03:52:34;;;;;;;0.43;0.40;;;21.40;99.90;;;;;;5051056;28;20194;-43
2022/08/30 03:55:01;;;;;;;0.50;0.50;;;21.40;99.90;;;;;;5050667;28;20259;-45
2022/08/30 03:57:29;;;;;;;0.35;0.35;;;21.40;99.90;;;;;;5051984;28;20222;-44
2022/08/30 03:59:58;;;;;;;0.65;0.30;;;21.40;99.90;;;;;;5050072;28;20289;-43
2022/08/30 04:02:26;;;;;;;0.40;0.40;;;21.40;99.90;;;;;;5052101;28;20225;-43
2022/08/30 04:04:53;;;;;;;0.30;0.30;;;21.40;99.90;;;;;;5050689;28;20259;-44
2022/08/30 04:07:20;;;;;;;0.40;0.40;;;21.40;99.90;;;;;;5047816;28;20252;-42
2022/08/30 04:09:47;;;;;;;0.45;0.45;;;21.40;99.90;;;;;;5051462;28;20281;-43
2022/08/30 04:12:14;;;;;;;0.47;0.47;;;21.40;99.90;;;;;;5051146;28;20236;-44
2022/08/30 04:14:41;;;;;;;0.30;0.30;;;21.40;99.90;;;;;;5049504;28;20243;-41
2022/08/30 04:17:09;;;;;;;0.45;0.45;;;21.30;99.90;;;;;;5050477;28;20240;-41
2022/08/30 04:19:36;;;;;;;0.40;0.40;;;21.30;99.90;;;;;;5050882;28;20190;-43
2022/08/30 04:22:04;;;;;;;0.40;0.40;;;21.30;99.90;;;;;;5050200;28;20647;-44
2022/08/30 04:24:33;;;;;;;0.52;0.52;;;21.30;99.90;;;;;;5049843;28;20233;-44
2022/08/30 04:27:00;;;;;;;0.40;0.40;;;21.20;99.90;;;;;;5048807;28;20531;-41
2022/08/30 04:29:27;;;;;;;0.50;0.50;;;21.20;99.80;;;;;;5047489;28;20229;-44
2022/08/30 04:31:54;;;;;;;0.47;0.40;;;21.20;99.80;;;;;;5051145;28;20650;-42
2022/08/30 04:34:23;;;;;;;0.73;0.57;;;21.20;99.70;;;;;;5048229;28;20256;-43
2022/08/30 04:36:50;;;;;;;0.57;0.57;;;21.20;99.70;;;;;;5048768;28;20641;-40
2022/08/30 04:39:18;;;;;;;0.70;0.70;;;21.20;99.60;;;;;;5048983;28;20202;-42
2022/08/30 04:41:45;;;;;;;0.95;0.40;;;21.10;99.50;;;;;;5048254;28;20190;-40
2022/08/30 04:44:13;;;;;;;0.30;0.30;;;21.10;99.40;;;;;;5049132;28;20272;-40
2022/08/30 04:46:40;;;;;;;0.45;0.45;;;21.20;99.40;;;;;;5051131;28;20217;-42
2022/08/30 04:49:07;;;;;;;0.57;0.50;;;21.20;99.40;;;;;;5051479;28;20269;-41
2022/08/30 04:51:36;;;;;;;0.40;0.40;;;21.20;99.30;;;;;;5051211;28;20186;-39
2022/08/30 04:54:03;;;;;;;0.40;0.40;;;21.20;99.30;;;;;;5049487;28;20229;-41
2022/08/30 04:56:30;;;;;;;0.88;0.43;;;21.20;99.30;;;;;;5050798;28;20360;-44
2022/08/30 04:58:57;;;;;;;0.40;0.40;;;21.20;99.10;;;;;;5049156;28;20642;-41
2022/08/30 05:01:28;;;;;;;0.50;0.50;;;21.20;99.00;;;;;;5048647;28;20194;-43
2022/08/30 05:03:56;;;;;;;0.75;0.50;;;21.20;98.90;;;;;;5048025;28;20681;-45
2022/08/30 05:06:26;;;;;;;0.50;0.50;;;21.20;98.70;;;;;;5049953;28;20587;-42
2022/08/30 05:08:54;;;;;;;0.50;0.50;;;21.20;98.30;;;;;;5047576;28;20252;-40
2022/08/30 05:11:22;;;;;;;0.60;0.60;;;21.20;98.30;;;;;;5050288;28;20622;-41
2022/08/30 05:13:50;;;;;;;0.40;0.40;;;21.20;98.20;;;;;;5048448;28;20236;-39
2022/08/30 05:16:18;;;;;;;0.35;0.35;;;21.20;98.10;;;;;;5049654;28;20273;-42
2022/08/30 05:18:46;;;;;;;0.50;0.50;;;21.20;98.40;;;;;;5047722;28;20226;-41
2022/08/30 05:21:16;;;;;;;0.50;0.50;;;21.20;98.00;;;;;;5045888;28;20297;-40
2022/08/30 05:23:44;;;;;;;0.60;0.60;;;21.30;97.90;;;;;;5048301;28;20198;-41
2022/08/30 05:26:15;;;;;;;0.40;0.40;;;21.20;97.80;;;;;;5045695;28;20218;-40
2022/08/30 05:28:42;;;;;;;0.50;0.50;;;21.20;97.60;;;;;;5046893;28;20653;-41
2022/08/30 05:31:15;;;;;;;2.20;0.57;;;21.20;97.60;;;;;;5047793;28;20296;-41
2022/08/30 05:33:42;;;;;;;0.60;0.60;;;21.20;97.60;;;;;;5048623;28;20281;-40
2022/08/30 05:36:11;;;;;;;0.50;0.50;;;21.20;97.60;;;;;;5046256;28;20279;-44
2022/08/30 05:38:39;;;;;;;0.50;0.50;;;21.20;97.60;;;;;;5049005;28;20285;-44
2022/08/30 05:41:06;;;;;;;1.25;0.70;;;21.20;97.50;;;;;;5055461;28;20299;-45
2022/08/30 05:43:35;;;;;;;0.60;0.60;;;21.20;97.50;;;;;;5047987;28;20228;-42
2022/08/30 05:46:05;;;;;;;0.40;0.40;;;21.30;97.50;;;;;;5049333;28;20288;-44
2022/08/30 05:48:33;;;;;;;0.60;0.60;;;21.30;97.50;;;;;;5047693;28;20200;-46
2022/08/30 05:51:06;;;;;;;0.32;0.32;;;21.30;97.50;;;;;;5047586;28;20224;-41
2022/08/30 05:53:34;;;;;;;1.20;0.73;;;21.40;97.50;;;;;;5047251;28;20255;-41
2022/08/30 05:56:03;;;;;;;0.50;0.50;;;21.40;97.40;;;;;;5049655;28;20183;-40
2022/08/30 05:58:31;;;;;;;0.40;0.40;;;21.40;97.40;;;;;;5047743;28;20680;-44
2022/08/30 06:01:00;;;;;;;0.50;0.50;;;21.50;97.30;;;;;;5047600;28;20244;-41
2022/08/30 06:03:27;;;;;;;0.52;0.50;;;21.40;97.30;;;;;;5049908;28;20571;-51
2022/08/30 06:05:54;;;;;;;0.50;0.50;;;21.40;97.30;;;;;;5048701;28;20217;-47
2022/08/30 06:08:22;;;;;;;0.50;0.50;;;21.40;97.40;;;;;;5047513;28;20205;-45
2022/08/30 06:10:49;;;;;;;0.52;0.52;;;21.40;97.40;;;;;;5045724;28;20673;-46
2022/08/30 06:13:16;;;;;;;0.70;0.70;;;21.40;97.40;;;;;;5046525;28;20720;-47
2022/08/30 06:15:45;;;;;;;2.65;0.70;;;21.40;97.40;;;;;;5047290;28;20197;-45
2022/08/30 06:18:14;;;;;;;0.63;0.63;;;21.40;97.50;;;;;;5047205;28;20271;-46
2022/08/30 06:20:42;;;;;;;0.60;0.60;;;21.50;97.50;;;;;;5044183;28;20630;-46
2022/08/30 06:23:09;;;;;;;0.63;0.60;;;21.50;97.60;;;;;;5048323;28;20665;-46
2022/08/30 06:25:37;;;;;;;0.47;0.47;;;21.50;97.60;;;;;;5040458;28;20312;-46
2022/08/30 06:28:06;;;;;;;0.57;0.57;;;21.50;97.60;;;;;;5049252;28;20194;-41
2022/08/30 06:30:33;;;;;;;0.50;0.50;;;21.60;97.70;;;;;;5047168;28;20671;-52
2022/08/30 06:33:01;;;;;;;0.52;0.52;;;21.70;97.70;;;;;;5048370;28;20190;-48
2022/08/30 06:35:31;;;;;;;0.63;0.63;;;21.80;97.60;;;;;;5046935;28;20753;-44
2022/08/30 06:37:59;;;;;;;0.95;0.80;;;21.90;97.60;;;;;;5051446;28;20190;-42
2022/08/30 06:40:26;;;;;;;1.00;0.50;;;22.00;97.50;;;;;;5055462;28;20290;-46
2022/08/30 06:42:53;;;;;;;1.60;0.60;;;22.00;97.50;;;;;;5054705;28;20527;-45
2022/08/30 06:45:21;;;;;;;0.60;0.60;;;22.10;97.40;;;;;;5050137;28;20244;-39
2022/08/30 06:47:48;;;;;;;0.55;0.55;;;22.10;97.40;;;;;;5052411;28;20610;-42
2022/08/30 06:50:16;;;;;;;0.90;0.60;;;22.10;97.40;;;;;;5051529;28;20237;-40
2022/08/30 06:52:46;;;;;;;0.50;0.50;;;22.20;97.30;;;;;;5052207;28;20201;-40
2022/08/30 06:55:15;;;;;;;0.55;0.55;;;22.20;97.30;;;;;;5051423;28;20202;-40
2022/08/30 06:57:42;;;;;;;0.82;0.60;;;22.20;97.20;;;;;;5052110;28;20259;-41
2022/08/30 07:00:12;;;;;;;0.50;0.50;;;22.30;97.20;;;;;;5048693;28;20217;-43
2022/08/30 07:02:40;;;;;;;0.65;0.50;;;22.30;97.20;;;;;;5051982;28;20193;-42
2022/08/30 07:05:11;;;;;;;0.40;0.40;;;22.30;97.40;;;;;;5048323;28;20293;-44
2022/08/30 07:07:38;;;;;;;0.40;0.40;;;22.40;97.10;;;;;;5052033;28;20192;-46
2022/08/30 07:10:08;;;;;;;0.45;0.45;;;22.40;97.10;;;;;;5051137;28;20216;-44
2022/08/30 07:12:36;;;;;;;0.68;0.68;;;22.40;97.00;;;;;;5050584;28;20190;-40
2022/08/30 07:15:05;;;;;;;0.60;0.60;;;22.40;96.90;;;;;;5049394;28;20206;-44
2022/08/30 07:20:20;;;;;;;0.60;0.60;;;22.40;96.80;;;;;;5049547;28;20201;-40
2022/08/30 07:22:47;;;;;;;0.50;0.50;;;22.40;96.70;;;;;;5051383;28;20198;-41
2022/08/30 07:25:17;;;;;;;2.30;0.60;;;22.30;96.60;;;;;;5051864;28;20260;-40
2022/08/30 07:27:44;;;;;;;0.63;0.63;;;22.30;96.60;;;;;;5049931;28;20210;-47
2022/08/30 07:30:13;;;;;;;0.50;0.50;;;22.30;96.90;;;;;;5049891;28;20205;-45
2022/08/30 07:32:40;;;;;;;0.57;0.50;;;22.30;96.60;;;;;;5049770;28;20246;-48
2022/08/30 07:35:07;;;;;;;0.50;0.50;;;22.30;96.60;;;;;;5050900;28;20197;-43
2022/08/30 07:37:34;;;;;;;0.45;0.45;;;22.30;96.60;;;;;;5051398;28;20213;-49
2022/08/30 07:40:01;;;;;;;0.50;0.50;;;22.30;96.60;;;;;;5051431;28;20202;-46
2022/08/30 07:42:30;;;;;;;0.60;0.60;;;22.30;96.70;;;;;;5050699;28;20580;-42
2022/08/30 07:44:57;;;;;;;0.40;0.40;;;22.30;96.70;;;;;;5049659;28;20197;-43
2022/08/30 07:47:24;;;;;;;0.63;0.63;;;22.30;96.80;;;;;;5048806;28;20275;-44
2022/08/30 07:49:51;;;;;;;0.50;0.50;;;22.30;96.80;;;;;;5049468;28;20190;-45
2022/08/30 07:52:18;;;;;;;0.52;0.50;;;22.20;96.80;;;;;;5050717;28;20202;-40
2022/08/30 07:54:45;;;;;;;0.40;0.40;;;22.30;96.90;;;;;;5048177;28;20222;-38
2022/08/30 07:57:12;;;;;;;0.50;0.50;;;22.30;96.90;;;;;;5050483;28;20367;-46
2022/08/30 07:59:40;;;;;;;0.70;0.70;;;22.20;96.90;;;;;;5049631;28;20281;-42
2022/08/30 08:02:07;;;;;;;1.45;0.70;;;22.20;97.00;;;;;;5050391;28;20249;-44
2022/08/30 08:04:34;;;;;;;0.50;0.50;;;22.20;97.00;;;;;;5049153;28;20565;-43
2022/08/30 08:07:02;;;;;;;0.50;0.50;;;22.20;97.10;;;;;;5049836;28;20325;-45
2022/08/30 08:09:29;;;;;;;0.50;0.50;;;22.20;97.20;;;;;;5049888;28;20217;-45
2022/08/30 08:11:56;;;;;;;0.85;0.70;;;22.20;97.20;;;;;;5048644;28;20280;-40
2022/08/30 08:14:23;;;;;;;0.40;0.40;;;22.10;97.30;;;;;;5048980;28;20198;-40
2022/08/30 08:16:51;;;;;;;0.40;0.40;;;22.10;97.40;;;;;;5049755;28;20193;-43
2022/08/30 08:19:19;;;;;;;0.40;0.40;;;22.10;97.50;;;;;;5050762;28;20248;-41
2022/08/30 08:21:46;;;;;;;0.50;0.50;;;22.10;97.50;;;;;;5049221;28;20197;-41
2022/08/30 08:24:13;;;;;;;0.60;0.60;;;22.10;97.60;;;;;;5050141;28;20320;-42
2022/08/30 08:26:41;;;;;;;0.40;0.40;;;22.10;97.70;;;;;;5052228;28;20194;-40
2022/08/30 08:29:09;;;;;;;0.50;0.50;;;22.10;97.70;;;;;;5048941;28;20194;-43
2022/08/30 08:31:37;;;;;;;0.50;0.50;;;22.10;97.80;;;;;;5051370;28;20196;-46
2022/08/30 08:34:06;;;;;;;0.40;0.40;;;22.10;97.90;;;;;;5049207;28;20201;-43
2022/08/30 08:36:33;;;;;;;0.52;0.52;;;22.10;98.10;;;;;;5047775;28;20288;-44
2022/08/30 08:39:01;;;;;;;0.55;0.55;;;22.10;98.20;;;;;;5050620;28;20202;-45
2022/08/30 08:41:40;;;;;;;0.50;0.50;;;22.10;98.30;;;;;;5049378;28;20733;-46
2022/08/30 08:44:13;;;;;;;0.50;0.50;;;22.10;98.40;;;;;;5047965;28;20218;-43
2022/08/30 08:46:49;;;;;;;0.50;0.50;;;22.00;98.50;;;;;;5046207;28;20264;-48
2022/08/30 08:49:17;;;;;;;0.43;0.40;;;22.00;98.60;;;;;;5047293;28;20182;-48
2022/08/30 08:54:35;;;;;;;0.30;0.30;;;22.00;98.90;;;;;;5048355;28;20194;-44
2022/08/30 08:57:02;;;;;;;0.50;0.50;;;21.90;98.90;;;;;;5047730;28;20611;-45
2022/08/30 08:59:29;;;;;;;0.70;0.60;;;21.90;99.10;;;;;;5047548;28;20193;-42
2022/08/30 09:02:01;;;;;;;0.70;0.70;;;21.90;99.20;;;;;;5047813;28;20724;-47
2022/08/30 09:04:36;;;;;;;0.43;0.43;;;21.90;99.30;;;;;;5048841;28;20598;-44
2022/08/30 09:07:08;;;;;;;0.60;0.60;;;21.90;99.50;;;;;;5048887;28;20280;-44
2022/08/30 09:09:39;;;;;;;0.50;0.50;;;21.90;99.60;;;;;;5046336;28;20335;-46
2022/08/30 09:12:08;;;;;;;1.00;0.60;;;21.80;99.70;;;;;;5049160;28;20194;-45
2022/08/30 09:14:39;;;;;;;0.70;0.70;;;21.80;99.90;;;;;;5045956;28;20608;-44
2022/08/30 09:17:09;;;;;;;0.60;0.60;;;21.70;99.90;;;;;;5046327;28;20205;-42
2022/08/30 09:19:44;;;;;;;0.70;0.50;;;21.60;99.90;;;;;;5047093;28;20225;-40
2022/08/30 09:22:25;;;;;;;0.50;0.50;;;21.60;99.90;;;;;;5048885;28;20197;-42
2022/08/30 09:24:59;;;;;;;0.45;0.45;;;21.50;99.90;;;;;;5048068;28;20562;-43
2022/08/30 09:27:30;;;;;;;0.73;0.73;;;21.50;99.90;;;;;;5049438;28;20616;-42
2022/08/30 09:30:01;;;;;;;0.50;0.50;;;21.50;99.90;;;;;;5047831;28;20263;-44
2022/08/30 09:32:32;;;;;;;0.40;0.40;;;21.50;99.90;;;;;;5048863;28;20198;-45
2022/08/30 09:35:00;;;;;;;0.68;0.68;;;21.50;99.90;;;;;;5045104;28;20198;-42
2022/08/30 09:37:32;;;;;;;0.60;0.60;;;21.50;99.90;;;;;;5047911;28;20293;-39
2022/08/30 09:40:00;;;;;;;0.47;0.45;;;21.50;99.90;;;;;;5047487;28;20268;-44
2022/08/30 09:42:29;;;;;;;0.68;0.68;;;21.60;99.90;;;;;;5046611;28;20194;-46
2022/08/30 09:45:09;;;;;;;1.02;0.63;;;21.60;99.90;;;;;;5046671;28;20193;-43
2022/08/30 09:47:39;;;;;;;0.60;0.50;;;21.60;99.90;;;;;;5049689;28;20202;-46
2022/08/30 09:50:10;;;;;;;0.40;0.40;;;21.60;99.90;;;;;;5050775;28;20198;-48
2022/08/30 09:52:49;;;;;;;0.60;0.60;;;21.70;99.90;;;;;;5047134;28;20190;-45
2022/08/30 09:55:26;;;;;;;0.45;0.43;;;21.70;99.90;;;;;;5062672;28;20190;-45
2022/08/30 09:58:13;;;;;;;0.63;0.50;;;21.70;99.90;;;;;;5042694;28;20186;-42
2022/08/30 10:00:47;;;;;;;0.68;0.68;;;21.70;99.90;;;;;;5046120;28;20630;-42
2022/08/30 10:03:22;;;;;;;1.50;0.82;;;21.80;99.90;;;;;;5047098;28;20202;-43
2022/08/30 10:05:58;;;;;;;0.60;0.60;;;21.80;99.90;;;;;;5048009;28;20621;-42
2022/08/30 10:08:34;;;;;;;0.43;0.43;;;21.80;99.90;;;;;;5060654;28;20275;-46
2022/08/30 10:11:05;;;;;;;0.80;0.68;;;21.80;99.90;;;;;;5048627;28;20277;-44
2022/08/30 10:13:56;;;;;;;0.60;0.50;;;21.90;99.90;;;;;;5044977;28;20197;-43
2022/08/30 10:16:35;;;;;;;0.80;0.70;;;21.90;99.90;;;;;;5045822;28;20233;-42
2022/08/30 10:19:10;;;;;;;0.60;0.60;;;21.80;99.90;;;;;;5045645;28;20200;-43
2022/08/30 10:21:42;;;;;;;0.60;0.60;;;21.90;99.90;;;;;;5047475;28;20275;-48
2022/08/30 10:24:12;;;;;;;0.60;0.60;;;21.90;99.90;;;;;;5046131;28;20291;-45
2022/08/30 10:26:44;;;;;;;0.60;0.60;;;21.90;99.90;;;;;;5044650;28;20264;-43
2022/08/30 10:29:16;;;;;;;0.47;0.47;;;21.90;99.90;;;;;;5042908;28;20213;-43
2022/08/30 10:31:49;;;;;;;0.70;0.70;;;21.90;99.90;;;;;;5048746;28;20264;-46
2022/08/30 10:34:20;;;;;;;0.50;0.50;;;22.00;99.90;;;;;;5047380;28;20293;-49
2022/08/30 10:36:54;;;;;;;1.23;0.50;;;22.00;99.90;;;;;;5049747;28;20193;-44
2022/08/30 10:39:26;;;;;;;6.10;0.70;;;22.10;99.90;;;;;;5046994;28;20188;-45
2022/08/30 10:42:01;;;;;;;0.60;0.60;;;22.20;99.90;;;;;;5050732;28;20260;-44
2022/08/30 10:44:32;;;;;;;0.50;0.50;;;22.30;99.90;;;;;;5044319;28;20263;-44
2022/08/30 10:47:08;;;;;;;2.15;0.80;;;22.40;99.90;;;;;;5050101;28;20283;-49
2022/08/30 10:49:39;;;;;;;0.45;0.45;;;22.40;99.90;;;;;;5046937;28;20255;-46
2022/08/30 10:52:23;;;;;;;0.80;0.80;;;22.50;99.90;;;;;;5049539;28;20217;-48
2022/08/30 10:54:54;;;;;;;0.73;0.73;;;22.60;99.90;;;;;;5046783;28;20202;-44
2022/08/30 10:57:21;;;;;;;0.70;0.70;;;22.60;99.90;;;;;;5048975;28;20214;-43
2022/08/30 10:59:53;;;;;;;0.77;0.70;;;22.80;99.90;;;;;;5045862;28;20624;-47
2022/08/30 11:02:39;;;;;;;0.50;0.50;;;22.90;99.90;;;;;;5048175;28;20267;-47
2022/08/30 11:05:31;;;;;;;0.95;0.57;;;23.10;99.90;;;;;;5043350;28;20293;-47
2022/08/30 11:08:08;;;;;;;0.88;0.60;;;23.10;99.90;;;;;;5041751;28;20277;-43
2022/08/30 11:10:50;;;;;;;2.08;0.68;;;23.30;99.90;;;;;;5047416;28;20190;-48
2022/08/30 11:13:22;;;;;;;1.20;0.70;;;23.40;99.90;;;;;;5045934;28;20689;-50
2022/08/30 11:15:57;;;;;;;0.95;0.95;;;23.50;99.90;;;;;;5045671;28;20288;-52
2022/08/30 11:18:26;;;;;;;1.13;0.88;;;23.60;99.80;;;;;;5043536;28;20268;-52
2022/08/30 11:20:55;;;;;;;0.77;0.77;;;23.60;99.50;;;;;;5046109;28;20190;-60
2022/08/30 11:23:30;;;;;;;2.25;1.00;;;23.70;99.20;;;;;;5048659;28;20277;-58
2022/08/30 11:26:00;;;;;;;1.30;0.68;;;23.70;98.60;;;;;;5051558;28;20217;-57
2022/08/30 11:29:08;;;;;;;2.05;0.90;;;23.70;98.50;;;;;;5049713;28;20206;-58
2022/08/30 11:31:42;;;;;;;0.80;0.70;;;23.70;98.30;;;;;;5045940;28;20681;-57
2022/08/30 11:34:10;;;;;;;2.05;0.80;;;23.70;97.80;;;;;;5050237;28;20201;-58
2022/08/30 11:37:07;;;;;;;1.52;0.88;;;23.80;97.80;;;;;;5048969;28;20785;-56
2022/08/30 11:39:57;;;;;;;1.40;0.77;;;23.80;97.70;;;;;;5050646;28;20210;-58
2022/08/30 11:42:35;;;;;;;0.70;0.70;;;23.80;97.30;;;;;;5049005;28;20553;-59
2022/08/30 11:45:44;;;;;;;0.88;0.88;;;23.80;96.90;;;;;;5047824;28;20669;-58
2022/08/30 11:48:41;;;;;;;2.67;1.02;;;23.70;96.70;;;;;;5015856;28;20264;-58
2022/08/30 11:51:23;;;;;;;0.60;0.60;;;23.70;96.60;;;;;;5046640;28;20206;-58
2022/08/30 11:53:58;;;;;;;0.90;0.90;;;23.80;96.50;;;;;;5049536;28;20204;-57
2022/08/30 11:56:34;;;;;;;0.90;0.90;;;23.80;96.20;;;;;;5050497;28;20197;-52
2022/08/30 11:59:07;;;;;;;1.25;0.90;;;23.90;96.10;;;;;;5050329;28;20671;-55
2022/08/30 12:01:37;;;;;;;1.13;0.85;;;24.00;95.50;;;;;;5049929;28;20191;-52
2022/08/30 12:04:09;;;;;;;2.03;0.93;;;24.10;95.30;;;;;;5049341;28;20209;-52
2022/08/30 12:06:52;;;;;;;3.60;0.98;;;24.10;95.10;;;;;;5051050;28;20197;-53
2022/08/30 12:10:02;;;;;;;1.10;0.63;;;24.00;95.10;;;;;;5048321;28;20200;-57
2022/08/30 12:12:52;;;;;;;0.80;0.80;;;24.10;95.20;;;;;;5050852;28;20622;-56
2022/08/30 12:15:41;;;;;;;1.05;0.90;;;24.20;95.10;;;;;;5047241;28;20209;-57
2022/08/30 12:18:28;;;;;;;0.95;0.70;;;24.20;94.90;;;;;;5048948;28;20279;-57
2022/08/30 12:21:01;;;;;;;1.00;0.90;;;24.10;94.70;;;;;;5049666;28;20213;-53
2022/08/30 12:23:36;;;;;;;0.60;0.60;;;24.10;94.70;;;;;;5047336;28;20744;-57
2022/08/30 12:26:17;;;;;;;0.80;0.80;;;24.10;94.80;;;;;;5049526;28;20294;-56
2022/08/30 12:28:50;;;;;;;0.95;0.90;;;24.10;94.40;;;;;;5048029;28;20698;-57
2022/08/30 12:31:22;;;;;;;1.65;0.90;;;24.00;94.20;;;;;;5048347;28;20645;-57
2022/08/30 12:33:53;;;;;;;2.63;0.80;;;24.00;94.20;;;;;;5047460;28;20657;-56
2022/08/30 12:36:34;;;;;;;3.50;0.82;;;24.00;94.10;;;;;;5046416;28;20190;-57
2022/08/30 12:39:11;;;;;;;0.70;0.70;;;24.00;93.80;;;;;;5049246;28;20222;-55
2022/08/30 12:41:40;;;;;;;0.75;0.70;;;24.00;94.00;;;;;;5046884;28;20194;-57
2022/08/30 12:44:14;;;;;;;1.05;0.90;;;23.90;93.50;;;;;;5046763;28;20558;-58
2022/08/30 12:46:41;;;;;;;0.70;0.70;;;23.90;93.30;;;;;;5048662;28;20194;-58
2022/08/30 12:49:09;;;;;;;0.80;0.68;;;23.80;93.20;;;;;;5048111;28;20631;-57
2022/08/30 12:51:39;;;;;;;0.70;0.70;;;23.80;93.30;;;;;;5045609;28;20243;-53
2022/08/30 12:54:13;;;;;;;0.60;0.60;;;23.80;93.40;;;;;;5049247;28;20284;-55
2022/08/30 12:56:56;;;;;;;0.73;0.70;;;23.80;93.50;;;;;;5048468;28;20271;-57
2022/08/30 12:59:56;;;;;;;0.70;0.70;;;23.90;93.50;;;;;;5050602;28;20726;-56
2022/08/30 13:02:25;;;;;;;0.77;0.77;;;23.90;93.60;;;;;;4988831;28;20202;-56
2022/08/30 13:04:54;;;;;;;1.00;1.00;;;23.90;93.40;;;;;;5035428;28;20210;-56
2022/08/30 13:07:31;;;;;;;0.90;0.90;;;23.90;93.40;;;;;;5046289;28;20693;-55
2022/08/30 13:10:18;;;;;;;1.10;1.00;;;23.80;93.30;;;;;;5049597;28;20684;-55
2022/08/30 13:13:01;;;;;;;1.73;1.00;;;23.80;93.40;;;;;;5049277;28;20277;-57